Time;durP1;ratioP1;P1;durP2;ratioP2;P2;SDS_P1;SDS_P2;PMS_P1;PMS_P2;Temp;Humidity;BMP_temperature;BMP_pressure;BME280_temperature;BME280_humidity;BME280_pressure;Samples;Min_cycle;Max_cycle;Signal;HPM_P1;HPM_P2
2022/05/02 00:00:09;;;;;;;3.72;2.60;;;12.40;99.90;;;;;;5021444;28;20391;-59
2022/05/02 00:02:36;;;;;;;5.32;3.00;;;12.30;99.90;;;;;;5019898;28;20524;-58
2022/05/02 00:05:02;;;;;;;4.30;3.17;;;12.30;99.90;;;;;;5019538;28;20987;-57
2022/05/02 00:07:28;;;;;;;8.33;5.40;;;12.30;99.90;;;;;;5018564;28;20395;-59
2022/05/02 00:09:53;;;;;;;11.18;7.13;;;12.10;99.90;;;;;;5018569;28;20489;-58
2022/05/02 00:12:19;;;;;;;11.73;7.60;;;12.10;99.90;;;;;;5019819;28;20564;-59
2022/05/02 00:14:45;;;;;;;12.10;6.80;;;12.10;99.90;;;;;;5019103;28;20383;-58
2022/05/02 00:17:10;;;;;;;8.55;5.93;;;12.10;99.90;;;;;;5035424;28;20411;-59
2022/05/02 00:19:36;;;;;;;10.60;6.55;;;12.20;99.90;;;;;;5019664;28;20391;-59
2022/05/02 00:22:02;;;;;;;11.53;6.60;;;12.20;99.90;;;;;;5018825;28;20395;-56
2022/05/02 00:24:28;;;;;;;10.03;6.03;;;12.20;99.90;;;;;;5033460;28;20395;-58
2022/05/02 00:26:53;;;;;;;8.97;5.80;;;12.20;99.90;;;;;;5016085;28;20438;-56
2022/05/02 00:29:19;;;;;;;9.47;5.83;;;12.20;99.90;;;;;;5015913;28;20422;-58
2022/05/02 00:31:47;;;;;;;8.65;5.57;;;12.10;99.90;;;;;;5016413;28;20394;-56
2022/05/02 00:34:13;;;;;;;8.73;5.30;;;12.10;99.90;;;;;;5016959;28;20418;-58
2022/05/02 00:36:39;;;;;;;6.60;4.00;;;12.00;99.90;;;;;;5015484;28;20476;-58
2022/05/02 00:39:05;;;;;;;7.32;4.32;;;11.90;99.90;;;;;;5016069;28;20911;-55
2022/05/02 00:41:31;;;;;;;7.82;4.30;;;12.00;99.90;;;;;;5016326;28;20832;-57
2022/05/02 00:43:56;;;;;;;6.15;4.13;;;12.00;99.90;;;;;;5017126;28;20407;-58
2022/05/02 00:46:24;;;;;;;7.45;4.22;;;11.90;99.90;;;;;;5017176;28;20414;-59
2022/05/02 00:48:50;;;;;;;6.68;4.57;;;11.90;99.90;;;;;;5032802;28;20380;-59
2022/05/02 00:51:16;;;;;;;6.95;4.95;;;11.90;99.90;;;;;;5015662;28;20383;-57
2022/05/02 00:53:44;;;;;;;7.97;5.18;;;11.80;99.90;;;;;;5014286;28;20398;-58
2022/05/02 00:56:10;;;;;;;8.45;4.90;;;11.80;99.90;;;;;;5014947;28;20387;-52
2022/05/02 00:58:36;;;;;;;8.55;5.10;;;11.80;99.90;;;;;;5015191;28;20416;-56
2022/05/02 01:01:04;;;;;;;7.30;4.67;;;11.70;99.90;;;;;;5013500;28;20608;-58
2022/05/02 01:03:31;;;;;;;8.27;5.33;;;11.60;99.90;;;;;;4946287;28;1914739;-59
2022/05/02 01:08:41;;;;;;;8.18;4.88;;;11.40;99.90;;;;;;5033340;28;20389;-60
2022/05/02 01:11:08;;;;;;;7.60;4.60;;;11.40;99.90;;;;;;5014552;28;20478;-60
2022/05/02 01:13:37;;;;;;;6.85;4.28;;;11.40;99.90;;;;;;5033342;28;20387;-60
2022/05/02 01:16:13;;;;;;;5.93;4.00;;;11.40;99.90;;;;;;5032289;28;20423;-59
2022/05/02 01:18:39;;;;;;;5.97;4.10;;;11.30;99.90;;;;;;5015082;28;20452;-60
2022/05/02 01:21:12;;;;;;;6.93;4.10;;;11.40;99.90;;;;;;5015126;28;20399;-60
2022/05/02 01:23:37;;;;;;;6.03;4.03;;;11.40;99.90;;;;;;5015721;28;20397;-60
2022/05/02 01:26:03;;;;;;;7.20;3.80;;;11.40;99.90;;;;;;5016237;28;20414;-60
2022/05/02 01:28:28;;;;;;;5.90;4.00;;;11.40;99.90;;;;;;5016211;28;20783;-61
2022/05/02 01:30:55;;;;;;;7.03;3.70;;;11.40;99.90;;;;;;5017093;28;20398;-59
2022/05/02 01:33:20;;;;;;;5.00;3.58;;;11.40;99.90;;;;;;5033351;28;20470;-59
2022/05/02 01:35:46;;;;;;;5.80;3.90;;;11.30;99.90;;;;;;5016431;28;20498;-60
2022/05/02 01:38:12;;;;;;;4.37;3.23;;;11.30;99.90;;;;;;5015164;28;20414;-60
2022/05/02 01:40:38;;;;;;;4.72;3.30;;;11.20;99.90;;;;;;5034179;28;20375;-60
2022/05/02 01:43:04;;;;;;;6.47;3.77;;;11.30;99.90;;;;;;5018657;28;20484;-59
2022/05/02 01:45:29;;;;;;;5.53;3.60;;;11.30;99.90;;;;;;5033698;28;20822;-58
2022/05/02 01:47:55;;;;;;;5.15;3.20;;;11.20;99.90;;;;;;5016727;28;20434;-57
2022/05/02 01:50:20;;;;;;;6.30;3.22;;;11.20;99.90;;;;;;5017037;28;20387;-59
2022/05/02 01:52:46;;;;;;;4.40;3.10;;;11.10;99.90;;;;;;5017290;28;20430;-59
2022/05/02 01:55:11;;;;;;;5.32;3.22;;;11.10;99.90;;;;;;5017077;28;20817;-60
2022/05/02 01:57:37;;;;;;;4.73;3.20;;;11.10;99.90;;;;;;5033557;28;20494;-60
2022/05/02 02:00:03;;;;;;;5.47;3.43;;;11.10;99.90;;;;;;5017689;28;20790;-58
2022/05/02 02:02:29;;;;;;;3.88;3.15;;;11.20;99.90;;;;;;5012555;28;20424;-59
2022/05/02 02:07:38;;;;;;;4.37;2.87;;;11.10;99.90;;;;;;5015542;28;20487;-60
2022/05/02 02:10:04;;;;;;;3.63;2.70;;;11.00;99.90;;;;;;5014810;28;20751;-58
2022/05/02 02:12:30;;;;;;;3.97;2.83;;;11.00;99.90;;;;;;5014749;28;20472;-57
2022/05/02 02:14:56;;;;;;;4.53;3.15;;;10.90;99.90;;;;;;5014493;28;20665;-60
2022/05/02 02:17:21;;;;;;;6.33;3.20;;;11.00;99.90;;;;;;5014843;28;20689;-57
2022/05/02 02:19:47;;;;;;;4.80;3.10;;;11.00;99.90;;;;;;5015104;28;20393;-58
2022/05/02 02:22:18;;;;;;;4.78;3.25;;;10.90;99.90;;;;;;5015306;28;20498;-60
2022/05/02 02:24:46;;;;;;;3.47;2.63;;;10.90;99.90;;;;;;5013755;28;20414;-59
2022/05/02 02:27:12;;;;;;;4.80;2.85;;;10.90;99.90;;;;;;5014008;28;20436;-60
2022/05/02 02:29:38;;;;;;;6.47;3.10;;;10.90;99.90;;;;;;5013740;28;20389;-60
2022/05/02 02:32:04;;;;;;;6.97;3.23;;;10.90;99.90;;;;;;5013632;28;20487;-58
2022/05/02 02:34:30;;;;;;;3.97;3.10;;;10.80;99.90;;;;;;5013926;28;20476;-60
2022/05/02 02:36:56;;;;;;;4.28;2.70;;;10.80;99.90;;;;;;5014777;28;20499;-60
2022/05/02 02:39:21;;;;;;;4.72;3.15;;;10.80;99.90;;;;;;5014981;28;20396;-60
2022/05/02 02:41:47;;;;;;;4.63;2.95;;;10.80;99.90;;;;;;5012181;28;20421;-60
2022/05/02 02:44:12;;;;;;;5.37;3.10;;;10.80;99.90;;;;;;5011943;28;20443;-58
2022/05/02 02:46:38;;;;;;;4.50;3.07;;;10.80;99.90;;;;;;5012793;28;20511;-60
2022/05/02 02:49:03;;;;;;;5.15;2.90;;;10.60;99.90;;;;;;5010426;28;20388;-60
2022/05/02 02:51:29;;;;;;;4.00;3.20;;;10.50;99.90;;;;;;5010768;28;20412;-60
2022/05/02 02:53:55;;;;;;;5.13;3.10;;;10.50;99.90;;;;;;5011273;28;20391;-59
2022/05/02 02:56:20;;;;;;;4.88;3.22;;;10.40;99.90;;;;;;5013088;28;20472;-58
2022/05/02 02:58:46;;;;;;;3.80;2.80;;;10.40;99.90;;;;;;5012538;28;20836;-59
2022/05/02 03:01:12;;;;;;;3.83;2.90;;;10.40;99.90;;;;;;5011729;28;20400;-58
2022/05/02 03:03:37;;;;;;;5.53;3.03;;;10.40;99.90;;;;;;5010930;28;20899;-60
2022/05/02 03:06:04;;;;;;;5.85;3.15;;;10.40;99.90;;;;;;5011567;28;20451;-58
2022/05/02 03:08:33;;;;;;;3.65;2.97;;;10.40;99.90;;;;;;5011872;28;20392;-56
2022/05/02 03:10:59;;;;;;;3.67;3.20;;;10.30;99.90;;;;;;5013341;28;20475;-56
2022/05/02 03:13:25;;;;;;;4.82;3.10;;;10.30;99.90;;;;;;5013730;28;20812;-57
2022/05/02 03:15:50;;;;;;;4.65;3.00;;;10.30;99.90;;;;;;5011772;28;20583;-57
2022/05/02 03:18:16;;;;;;;5.20;3.10;;;10.30;99.90;;;;;;5012489;28;20393;-59
2022/05/02 03:20:42;;;;;;;4.03;2.90;;;10.20;99.90;;;;;;5013158;28;20416;-53
2022/05/02 03:23:07;;;;;;;4.10;2.80;;;10.10;99.90;;;;;;5012850;28;20462;-56
2022/05/02 03:25:33;;;;;;;6.47;3.33;;;10.20;99.90;;;;;;5012243;28;20753;-55
2022/05/02 03:27:59;;;;;;;5.03;3.30;;;10.10;99.90;;;;;;5011083;28;20412;-60
2022/05/02 03:30:24;;;;;;;4.22;2.92;;;10.10;99.90;;;;;;5012396;28;20487;-59
2022/05/02 03:32:50;;;;;;;4.30;3.20;;;10.10;99.90;;;;;;5010698;28;20420;-59
2022/05/02 03:35:15;;;;;;;5.68;3.13;;;10.10;99.90;;;;;;5010394;28;20388;-59
2022/05/02 03:37:41;;;;;;;4.83;3.27;;;10.00;99.90;;;;;;5011676;28;20402;-58
2022/05/02 03:40:08;;;;;;;4.87;3.23;;;10.00;99.90;;;;;;5010852;28;20385;-59
2022/05/02 03:42:33;;;;;;;5.88;3.17;;;10.00;99.90;;;;;;5011411;28;20404;-59
2022/05/02 03:45:00;;;;;;;4.80;3.45;;;10.00;99.90;;;;;;5011175;28;20713;-59
2022/05/02 03:47:26;;;;;;;5.45;3.60;;;9.90;99.90;;;;;;5011756;28;20832;-58
2022/05/02 03:49:51;;;;;;;5.85;3.30;;;9.80;99.90;;;;;;5010970;28;20393;-60
2022/05/02 03:52:17;;;;;;;5.47;3.42;;;9.70;99.90;;;;;;5010469;28;20673;-60
2022/05/02 03:58:05;;;;;;;5.68;3.40;;;9.70;99.90;;;;;;5010330;28;20487;-59
2022/05/02 04:00:30;;;;;;;4.43;3.40;;;9.80;99.90;;;;;;5010415;28;20718;-60
2022/05/02 04:02:55;;;;;;;5.30;3.65;;;9.90;99.90;;;;;;5009989;28;20408;-59
2022/05/02 04:05:21;;;;;;;4.30;3.47;;;9.90;99.90;;;;;;5009633;28;20403;-59
2022/05/02 04:07:47;;;;;;;7.33;3.67;;;9.90;99.90;;;;;;5007303;28;20411;-58
2022/05/02 04:10:12;;;;;;;5.15;3.70;;;9.90;99.90;;;;;;5005478;28;20472;-57
2022/05/02 04:12:39;;;;;;;6.53;3.87;;;9.80;99.90;;;;;;5007038;28;20439;-58
2022/05/02 04:15:07;;;;;;;4.43;3.60;;;9.80;99.90;;;;;;5006064;28;20575;-60
2022/05/02 04:17:33;;;;;;;4.60;3.85;;;9.80;99.90;;;;;;5006192;28;20392;-58
2022/05/02 04:19:58;;;;;;;6.18;3.72;;;9.90;99.90;;;;;;5004672;28;20393;-59
2022/05/02 04:22:24;;;;;;;6.33;3.90;;;9.90;99.90;;;;;;5004503;28;20679;-58
2022/05/02 04:24:49;;;;;;;4.93;3.88;;;10.00;99.90;;;;;;5002346;28;20462;-60
2022/05/02 04:27:15;;;;;;;6.90;4.40;;;9.90;99.90;;;;;;5006375;28;20420;-59
2022/05/02 04:29:41;;;;;;;5.60;4.10;;;9.80;99.90;;;;;;5006389;28;20401;-57
2022/05/02 04:32:06;;;;;;;4.90;3.70;;;9.80;99.90;;;;;;5006247;28;20388;-58
2022/05/02 04:34:32;;;;;;;5.20;3.85;;;9.80;99.90;;;;;;5006118;28;20385;-60
2022/05/02 04:36:57;;;;;;;5.03;4.30;;;9.90;99.90;;;;;;5006929;28;20812;-59
2022/05/02 04:39:23;;;;;;;5.13;4.07;;;9.80;99.90;;;;;;5007783;28;20397;-58
2022/05/02 04:41:48;;;;;;;5.65;4.40;;;9.80;99.90;;;;;;5006137;28;20400;-59
2022/05/02 04:44:14;;;;;;;7.67;4.27;;;9.90;99.90;;;;;;5008421;28;20400;-59
2022/05/02 04:46:39;;;;;;;5.77;4.13;;;9.80;99.90;;;;;;5007979;28;20423;-58
2022/05/02 04:49:05;;;;;;;5.32;3.60;;;9.80;99.90;;;;;;5006642;28;20400;-58
2022/05/02 04:51:31;;;;;;;4.97;3.90;;;9.80;99.90;;;;;;5007659;28;20396;-59
2022/05/02 04:53:56;;;;;;;6.07;3.80;;;9.90;99.90;;;;;;5007555;28;20384;-57
2022/05/02 04:56:22;;;;;;;5.03;3.97;;;9.90;99.90;;;;;;5005700;28;20397;-60
2022/05/02 04:58:47;;;;;;;5.30;3.50;;;10.00;99.90;;;;;;5005686;28;20409;-58
2022/05/02 05:01:13;;;;;;;6.83;4.40;;;10.00;99.90;;;;;;5006074;28;20718;-60
2022/05/02 05:03:38;;;;;;;5.95;4.35;;;10.00;99.90;;;;;;5021589;28;20723;-57
2022/05/02 05:06:04;;;;;;;6.17;4.23;;;9.90;99.90;;;;;;5011743;28;20418;-60
2022/05/02 05:08:30;;;;;;;5.80;4.32;;;10.00;99.90;;;;;;5030393;28;20410;-59
2022/05/02 05:11:21;;;;;;;5.40;3.90;;;9.90;99.90;;;;;;5013201;28;20668;-59
2022/05/02 05:17:04;;;;;;;8.15;4.95;;;10.00;99.90;;;;;;5028536;28;20625;-59
2022/05/02 05:19:35;;;;;;;5.28;4.43;;;10.00;99.90;;;;;;5012837;28;20391;-59
2022/05/02 05:22:36;;;;;;;4.65;4.10;;;10.00;99.90;;;;;;5026825;28;20391;-60
2022/05/02 05:25:26;;;;;;;5.70;4.20;;;10.10;99.90;;;;;;5028360;28;20390;-60
2022/05/02 05:28:19;;;;;;;4.63;3.55;;;10.20;99.90;;;;;;5029358;28;20904;-57
2022/05/02 05:30:47;;;;;;;7.13;4.00;;;10.20;99.90;;;;;;5030869;28;20395;-59
2022/05/02 05:33:41;;;;;;;5.32;3.67;;;10.30;99.90;;;;;;5011263;28;20398;-58
2022/05/02 05:36:28;;;;;;;7.00;3.97;;;10.30;99.90;;;;;;5028781;28;20379;-59
2022/05/02 05:38:54;;;;;;;5.68;3.85;;;10.30;99.90;;;;;;5025933;28;20468;-59
2022/05/02 05:41:36;;;;;;;5.65;3.88;;;10.30;99.90;;;;;;5028238;28;20687;-59
2022/05/02 05:44:26;;;;;;;6.27;4.23;;;10.30;99.90;;;;;;5026984;28;20674;-57
2022/05/02 05:47:40;;;;;;;5.07;3.70;;;10.30;99.90;;;;;;5009542;28;20547;-58
2022/05/02 05:50:23;;;;;;;22.33;8.25;;;10.40;99.90;;;;;;4965845;28;20400;-57
2022/05/02 05:52:55;;;;;;;7.68;4.38;;;10.40;99.90;;;;;;5004148;28;20441;-59
2022/05/02 05:55:37;;;;;;;5.75;3.60;;;10.50;99.90;;;;;;5024118;28;20383;-58
2022/05/02 05:58:14;;;;;;;4.90;3.53;;;10.60;99.90;;;;;;5008258;28;20470;-59
2022/05/02 06:00:45;;;;;;;4.85;3.33;;;10.60;99.90;;;;;;5005974;28;20387;-59
2022/05/02 06:03:21;;;;;;;4.68;3.53;;;10.60;99.90;;;;;;5023642;28;20411;-57
2022/05/02 06:05:47;;;;;;;4.72;3.30;;;10.70;99.90;;;;;;5022855;28;20740;-59
2022/05/02 06:08:18;;;;;;;4.18;2.90;;;10.70;99.90;;;;;;5003260;28;20509;-57
2022/05/02 06:10:45;;;;;;;4.13;3.05;;;10.80;99.90;;;;;;5021214;28;20379;-59
2022/05/02 06:13:14;;;;;;;4.00;3.03;;;10.80;99.90;;;;;;5020920;28;20467;-60
2022/05/02 06:18:35;;;;;;;3.05;2.75;;;10.90;99.90;;;;;;5021073;28;20385;-59
2022/05/02 06:21:05;;;;;;;4.03;3.20;;;11.00;99.90;;;;;;5004009;28;20697;-59
2022/05/02 06:23:46;;;;;;;4.00;3.58;;;11.00;99.90;;;;;;5003594;28;20476;-58
2022/05/02 06:26:14;;;;;;;2.97;2.72;;;11.00;99.90;;;;;;4999520;28;20476;-57
2022/05/02 06:28:42;;;;;;;4.17;2.93;;;11.10;99.90;;;;;;5018438;28;20425;-60
2022/05/02 06:31:24;;;;;;;3.50;2.87;;;11.10;99.90;;;;;;5019731;28;20410;-56
2022/05/02 06:33:50;;;;;;;4.15;2.92;;;11.10;99.90;;;;;;5002939;28;20429;-59
2022/05/02 06:36:53;;;;;;;5.32;3.25;;;11.20;99.90;;;;;;5004296;28;20483;-59
2022/05/02 06:39:25;;;;;;;3.55;2.97;;;11.20;99.90;;;;;;5017702;28;20436;-60
2022/05/02 06:41:59;;;;;;;3.33;3.03;;;11.20;99.90;;;;;;5016408;28;20394;-59
2022/05/02 06:44:43;;;;;;;3.08;2.65;;;11.20;99.90;;;;;;5016382;28;20399;-59
2022/05/02 06:47:37;;;;;;;4.07;2.72;;;11.30;99.90;;;;;;5017817;28;20864;-59
2022/05/02 06:50:07;;;;;;;4.13;2.50;;;11.30;99.90;;;;;;5017519;28;20394;-60
2022/05/02 06:52:41;;;;;;;3.53;2.25;;;11.30;99.90;;;;;;5018327;28;20395;-57
2022/05/02 06:55:46;;;;;;;4.55;2.40;;;11.30;99.90;;;;;;5004003;28;20387;-59
2022/05/02 06:58:33;;;;;;;2.90;2.10;;;11.40;99.90;;;;;;5002908;28;20687;-59
2022/05/02 07:01:26;;;;;;;2.75;2.05;;;11.40;99.90;;;;;;5019451;28;20390;-60
2022/05/02 07:07:42;;;;;;;2.30;1.65;;;11.60;99.90;;;;;;4973736;28;20540;-59
2022/05/02 07:10:22;;;;;;;2.25;1.90;;;11.60;99.90;;;;;;4960561;28;20704;-60
2022/05/02 07:13:25;;;;;;;2.20;1.42;;;11.70;99.90;;;;;;4962494;28;20453;-63
2022/05/02 07:16:09;;;;;;;3.13;1.88;;;11.70;99.90;;;;;;4964128;28;20394;-59
2022/05/02 07:18:49;;;;;;;2.15;1.80;;;11.70;99.90;;;;;;4999035;28;20415;-58
2022/05/02 07:22:03;;;;;;;4.05;1.85;;;11.70;99.90;;;;;;5004911;28;20400;-60
2022/05/02 07:25:12;;;;;;;2.55;1.60;;;11.60;99.90;;;;;;4970996;28;20497;-59
2022/05/02 07:27:59;;;;;;;2.38;1.52;;;11.60;99.90;;;;;;4971903;28;20445;-58
2022/05/02 07:30:25;;;;;;;3.17;1.58;;;11.70;99.90;;;;;;4971409;28;20416;-60
2022/05/02 07:32:55;;;;;;;1.95;1.40;;;11.80;99.90;;;;;;5001719;28;20796;-59
2022/05/02 07:35:21;;;;;;;3.47;1.90;;;11.90;99.90;;;;;;5009695;28;20411;-60
2022/05/02 07:37:48;;;;;;;2.65;1.70;;;11.70;99.90;;;;;;5008745;28;20651;-59
2022/05/02 07:40:20;;;;;;;4.88;1.70;;;11.80;99.90;;;;;;5006635;28;20416;-60
2022/05/02 07:42:46;;;;;;;3.90;2.20;;;11.80;99.90;;;;;;5002052;28;20392;-58
2022/05/02 07:45:17;;;;;;;4.28;1.60;;;11.80;99.90;;;;;;5002195;28;20400;-60
2022/05/02 07:47:43;;;;;;;3.92;1.80;;;11.90;99.90;;;;;;5000667;28;20443;-58
2022/05/02 07:50:11;;;;;;;2.00;1.70;;;11.90;99.90;;;;;;5001879;28;20955;-59
2022/05/02 07:52:40;;;;;;;2.00;1.40;;;11.80;99.90;;;;;;5004817;28;20398;-60
2022/05/02 07:55:07;;;;;;;5.40;2.05;;;11.90;99.90;;;;;;5002964;28;20480;-64
2022/05/02 07:57:37;;;;;;;3.05;1.90;;;12.00;99.90;;;;;;5002579;28;20388;-58
2022/05/02 08:00:10;;;;;;;3.13;1.60;;;12.00;99.90;;;;;;5001759;28;20488;-58
2022/05/02 08:02:37;;;;;;;2.90;1.67;;;12.10;99.90;;;;;;5004824;28;20491;-59
2022/05/02 08:05:05;;;;;;;3.40;2.20;;;12.20;99.90;;;;;;5005951;28;20427;-60
2022/05/02 08:08:11;;;;;;;5.15;2.70;;;12.20;99.90;;;;;;5004917;28;20440;-57
2022/05/02 08:10:39;;;;;;;2.33;1.90;;;12.20;99.90;;;;;;5002925;28;20939;-57
2022/05/02 08:13:17;;;;;;;1.77;1.60;;;12.20;99.90;;;;;;5002524;28;20400;-60
2022/05/02 08:16:16;;;;;;;3.45;2.47;;;12.30;99.90;;;;;;5002389;28;20397;-60
2022/05/02 08:19:09;;;;;;;3.27;2.70;;;12.40;99.90;;;;;;5001856;28;20392;-60
2022/05/02 08:21:44;;;;;;;3.95;2.60;;;12.50;99.90;;;;;;5003421;28;20900;-60
2022/05/02 08:27:46;;;;;;;4.20;3.38;;;12.50;99.90;;;;;;5006305;28;20478;-65
2022/05/02 08:30:14;;;;;;;5.55;3.25;;;12.50;99.90;;;;;;5004511;28;20411;-60
2022/05/02 08:32:40;;;;;;;4.10;3.58;;;12.60;99.90;;;;;;5002096;28;20724;-58
2022/05/02 08:35:26;;;;;;;4.67;3.63;;;12.50;99.90;;;;;;5001580;28;20710;-59
2022/05/02 08:38:30;;;;;;;3.72;3.00;;;12.60;99.90;;;;;;5003074;28;20388;-58
2022/05/02 08:41:17;;;;;;;4.90;3.42;;;12.70;99.90;;;;;;5008510;28;20897;-60
2022/05/02 08:44:14;;;;;;;4.28;3.05;;;12.70;99.90;;;;;;5008140;28;20380;-60
2022/05/02 08:47:17;;;;;;;6.77;5.07;;;12.90;99.90;;;;;;5009814;28;20415;-60
2022/05/02 08:50:04;;;;;;;7.53;4.15;;;12.70;99.90;;;;;;5009719;28;20388;-59
2022/05/02 08:52:54;;;;;;;4.82;4.35;;;12.80;99.90;;;;;;5011348;28;20466;-60
2022/05/02 08:55:44;;;;;;;5.30;4.80;;;12.90;99.90;;;;;;5004570;28;20396;-58
2022/05/02 08:58:42;;;;;;;7.32;4.65;;;12.80;99.90;;;;;;5009993;28;20472;-59
2022/05/02 09:01:14;;;;;;;5.65;4.60;;;12.80;99.90;;;;;;5005248;28;20543;-59
2022/05/02 09:03:58;;;;;;;6.25;4.22;;;12.90;99.90;;;;;;5010581;28;20408;-59
2022/05/02 09:07:04;;;;;;;4.90;4.40;;;13.00;99.90;;;;;;5011809;28;20957;-59
2022/05/02 09:13:30;;;;;;;12.32;5.57;;;13.20;99.90;;;;;;5007260;28;20427;-60
2022/05/02 09:16:23;;;;;;;6.47;4.78;;;13.10;99.90;;;;;;5006841;28;20525;-60
2022/05/02 09:19:26;;;;;;;6.90;5.32;;;13.20;99.90;;;;;;5005063;28;20451;-59
2022/05/02 09:22:29;;;;;;;7.88;5.30;;;13.30;99.90;;;;;;5005587;28;20462;-60
2022/05/02 09:25:11;;;;;;;14.38;5.53;;;13.30;99.90;;;;;;5008951;28;20396;-61
2022/05/02 09:27:51;;;;;;;5.97;4.40;;;13.20;99.90;;;;;;5008238;28;21006;-61
2022/05/02 09:30:50;;;;;;;5.50;4.88;;;13.30;99.90;;;;;;5006814;28;20672;-62
2022/05/02 09:33:35;;;;;;;7.53;4.97;;;13.70;99.90;;;;;;5007156;28;20412;-61
2022/05/02 09:36:16;;;;;;;7.40;4.82;;;13.80;99.90;;;;;;5006596;28;20392;-62
2022/05/02 09:38:51;;;;;;;6.03;4.70;;;13.90;99.90;;;;;;5010111;28;20475;-59
2022/05/02 09:41:42;;;;;;;4.85;3.63;;;14.00;99.90;;;;;;5009749;28;20400;-60
2022/05/02 09:50:33;;;;;;;6.22;4.82;;;14.10;99.90;;;;;;5011535;28;20383;-59
2022/05/02 09:53:04;;;;;;;6.60;5.38;;;14.10;99.90;;;;;;5011068;28;20385;-58
2022/05/02 09:59:01;;;;;;;7.35;5.20;;;14.10;99.90;;;;;;5009150;28;20725;-59
2022/05/02 10:01:30;;;;;;;12.35;5.47;;;14.20;99.90;;;;;;5010731;28;20492;-57
2022/05/02 10:04:31;;;;;;;6.50;4.60;;;14.20;99.90;;;;;;5009476;28;20708;-57
2022/05/02 10:07:10;;;;;;;7.13;4.65;;;14.20;99.90;;;;;;5012427;28;20507;-59
2022/05/02 10:10:03;;;;;;;7.47;4.90;;;14.20;99.90;;;;;;5012335;28;20416;-59
2022/05/02 10:12:53;;;;;;;8.40;5.50;;;14.30;99.90;;;;;;5014307;28;20448;-57
2022/05/02 10:16:04;;;;;;;6.53;5.00;;;14.30;99.90;;;;;;5012709;28;20852;-58
2022/05/02 10:19:07;;;;;;;6.88;5.25;;;14.30;99.90;;;;;;5011162;28;20416;-59
2022/05/02 10:21:33;;;;;;;7.43;5.05;;;14.30;99.90;;;;;;5010163;28;20376;-58
2022/05/02 10:28:03;;;;;;;5.78;4.82;;;14.50;99.90;;;;;;5008984;28;20412;-59
2022/05/02 10:30:34;;;;;;;6.60;4.60;;;14.50;99.90;;;;;;5005992;28;20393;-59
2022/05/02 10:33:05;;;;;;;8.00;5.10;;;14.50;99.90;;;;;;5009388;28;20384;-59
2022/05/02 10:35:34;;;;;;;7.80;5.03;;;14.50;99.90;;;;;;5007740;28;20385;-59
2022/05/02 10:38:02;;;;;;;7.68;4.93;;;14.50;99.90;;;;;;5008971;28;20384;-57
2022/05/02 10:40:38;;;;;;;5.22;4.72;;;14.50;99.90;;;;;;5008677;28;20381;-57
2022/05/02 10:43:07;;;;;;;6.55;5.43;;;14.60;99.90;;;;;;5009330;28;20406;-59
2022/05/02 10:45:35;;;;;;;7.40;4.90;;;14.60;99.90;;;;;;5009092;28;20550;-59
2022/05/02 10:48:19;;;;;;;5.60;4.90;;;14.70;99.90;;;;;;5009666;28;20385;-59
2022/05/02 10:50:59;;;;;;;5.78;4.55;;;14.80;99.90;;;;;;5009281;28;21062;-57
2022/05/02 10:53:56;;;;;;;8.20;5.30;;;14.80;99.90;;;;;;5010299;28;20417;-59
2022/05/02 10:56:35;;;;;;;10.53;5.83;;;14.90;99.90;;;;;;5011239;28;20480;-58
2022/05/02 10:59:03;;;;;;;6.90;5.63;;;14.90;99.90;;;;;;5010985;28;20892;-59
2022/05/02 11:01:39;;;;;;;6.50;5.60;;;15.00;99.90;;;;;;5010875;28;20420;-57
2022/05/02 11:04:49;;;;;;;6.75;5.05;;;15.00;99.90;;;;;;5009236;28;20487;-59
2022/05/02 11:07:28;;;;;;;5.93;5.33;;;15.20;99.90;;;;;;5007082;28;20431;-59
2022/05/02 11:10:10;;;;;;;6.70;5.50;;;15.20;99.90;;;;;;5009569;28;20389;-57
2022/05/02 11:12:41;;;;;;;5.93;5.35;;;15.20;99.90;;;;;;5010105;28;20404;-57
2022/05/02 11:15:14;;;;;;;5.63;4.90;;;15.30;99.90;;;;;;5009123;28;20447;-59
2022/05/02 11:20:41;;;;;;;6.50;5.40;;;15.60;99.90;;;;;;5008967;28;20538;-59
2022/05/02 11:21:16;;;;;;;8.55;5.25;;;15.90;99.90;;;;;;5008175;28;20484;-59
2022/05/02 11:24:37;;;;;;;6.90;5.50;;;15.90;99.90;;;;;;5008845;28;20388;-59
2022/05/02 11:27:19;;;;;;;6.72;6.00;;;15.80;99.90;;;;;;4986091;28;21035;-59
2022/05/02 11:30:06;;;;;;;7.28;5.55;;;15.70;99.90;;;;;;4985569;28;20391;-60
2022/05/02 11:32:54;;;;;;;7.38;4.97;;;15.90;99.90;;;;;;4996672;28;20392;-59
2022/05/02 11:35:28;;;;;;;8.23;5.40;;;15.90;99.90;;;;;;5012258;28;20876;-59
2022/05/02 11:38:07;;;;;;;7.50;5.13;;;16.00;99.90;;;;;;5012649;28;20384;-59
2022/05/02 11:40:45;;;;;;;7.80;5.53;;;16.20;99.90;;;;;;5011069;28;20392;-60
2022/05/02 11:43:14;;;;;;;7.25;5.30;;;16.80;99.90;;;;;;5009496;28;20393;-59
2022/05/02 11:45:47;;;;;;;9.07;5.73;;;17.10;99.90;;;;;;5010679;28;20393;-60
2022/05/02 11:48:48;;;;;;;8.27;5.68;;;16.90;99.90;;;;;;5010468;28;20414;-60
2022/05/02 11:51:31;;;;;;;6.45;4.95;;;16.80;99.90;;;;;;5010836;28;20392;-59
2022/05/02 11:54:09;;;;;;;6.00;5.40;;;16.60;99.90;;;;;;5008590;28;20693;-60
2022/05/02 11:56:47;;;;;;;6.47;4.85;;;16.30;99.90;;;;;;5007201;28;20424;-58
2022/05/02 11:59:20;;;;;;;6.40;5.35;;;16.40;99.90;;;;;;5008334;28;20439;-60
2022/05/02 12:01:49;;;;;;;7.45;5.25;;;16.60;99.90;;;;;;5003867;28;20392;-60
2022/05/02 12:04:17;;;;;;;8.15;5.50;;;16.90;99.90;;;;;;5006253;28;20510;-58
2022/05/02 12:07:00;;;;;;;6.13;4.60;;;17.00;99.90;;;;;;5006014;28;20412;-57
2022/05/02 12:09:28;;;;;;;7.22;5.00;;;16.90;99.90;;;;;;5008372;28;20394;-62
2022/05/02 12:11:55;;;;;;;5.32;4.75;;;16.90;99.90;;;;;;5010514;28;20424;-56
2022/05/02 12:14:22;;;;;;;7.60;4.72;;;16.80;99.90;;;;;;5013434;28;20381;-56
2022/05/02 12:17:06;;;;;;;5.80;4.80;;;16.70;99.90;;;;;;5013554;28;21004;-55
2022/05/02 12:19:32;;;;;;;8.87;5.33;;;16.80;99.90;;;;;;5012189;28;20451;-54
2022/05/02 12:22:01;;;;;;;7.43;5.78;;;16.80;99.90;;;;;;5012954;28;20389;-55
2022/05/02 12:24:33;;;;;;;6.32;5.50;;;16.60;99.90;;;;;;5008541;28;20389;-54
2022/05/02 12:26:59;;;;;;;6.82;4.70;;;16.60;99.90;;;;;;5008651;28;20444;-55
2022/05/02 12:29:27;;;;;;;5.57;4.00;;;16.60;99.90;;;;;;5010506;28;20389;-56
2022/05/02 12:32:00;;;;;;;6.43;4.40;;;16.70;99.90;;;;;;5010222;28;20420;-57
2022/05/02 12:34:39;;;;;;;7.00;5.27;;;16.90;99.90;;;;;;5012794;28;20381;-53
2022/05/02 12:37:08;;;;;;;4.90;4.40;;;16.80;99.90;;;;;;5011302;28;20407;-53
2022/05/02 12:39:44;;;;;;;7.93;5.22;;;16.70;99.90;;;;;;5011105;28;20392;-50
2022/05/02 12:42:23;;;;;;;6.10;5.20;;;17.10;99.90;;;;;;5008790;28;20815;-55
2022/05/02 12:45:11;;;;;;;7.22;5.28;;;17.10;99.90;;;;;;5002912;28;20392;-52
2022/05/02 12:47:54;;;;;;;7.10;5.10;;;17.10;99.90;;;;;;5000837;28;20415;-50
2022/05/02 12:50:21;;;;;;;6.63;5.20;;;16.90;99.90;;;;;;5004748;28;20392;-54
2022/05/02 12:52:49;;;;;;;7.63;4.68;;;17.20;99.90;;;;;;5005560;28;20478;-52
2022/05/02 12:55:16;;;;;;;6.05;4.47;;;17.40;99.90;;;;;;5001004;28;20400;-51
2022/05/02 13:00:36;;;;;;;6.43;4.15;;;17.70;99.90;;;;;;5004236;28;20682;-50
2022/05/02 13:03:11;;;;;;;5.88;4.85;;;17.80;99.90;;;;;;5010027;28;20403;-54
2022/05/02 13:05:41;;;;;;;7.83;5.27;;;17.80;99.90;;;;;;5019770;28;20430;-53
2022/05/02 13:08:10;;;;;;;8.07;4.88;;;17.60;99.90;;;;;;5002817;28;21008;-54
2022/05/02 13:10:37;;;;;;;4.35;3.67;;;17.50;99.90;;;;;;5021568;28;20434;-55
2022/05/02 13:13:13;;;;;;;5.60;5.00;;;17.50;99.90;;;;;;5022773;28;20391;-51
2022/05/02 13:15:44;;;;;;;6.00;4.20;;;17.60;99.90;;;;;;5023055;28;20387;-51
2022/05/02 13:18:15;;;;;;;4.75;4.30;;;17.60;99.90;;;;;;5005678;28;20391;-53
2022/05/02 13:23:50;;;;;;;7.00;5.63;;;18.30;99.90;;;;;;5021393;28;20374;-56
2022/05/02 13:26:16;;;;;;;5.63;5.13;;;18.80;99.90;;;;;;5021210;28;20903;-52
2022/05/02 13:28:48;;;;;;;6.25;5.20;;;18.80;99.90;;;;;;5019922;28;20928;-55
2022/05/02 13:31:46;;;;;;;8.35;5.00;;;19.20;99.90;;;;;;5020774;28;20395;-54
2022/05/02 13:34:19;;;;;;;9.25;5.22;;;19.50;99.90;;;;;;5028090;28;20474;-52
2022/05/02 13:36:52;;;;;;;6.35;4.70;;;19.70;99.90;;;;;;5009905;28;20647;-52
2022/05/02 13:40:01;;;;;;;6.78;5.10;;;19.50;99.90;;;;;;5005289;28;20395;-52
2022/05/02 13:42:53;;;;;;;6.77;5.40;;;19.20;99.90;;;;;;5027061;28;20489;-49
2022/05/02 13:45:41;;;;;;;6.03;4.80;;;19.20;99.90;;;;;;5026676;28;20449;-52
2022/05/02 13:48:35;;;;;;;7.83;5.17;;;19.10;99.90;;;;;;5010450;28;20417;-55
2022/05/02 13:51:04;;;;;;;8.37;5.43;;;18.80;99.90;;;;;;5011237;28;20387;-52
2022/05/02 13:53:57;;;;;;;6.47;4.20;;;18.80;99.90;;;;;;5028866;28;20391;-57
2022/05/02 13:56:50;;;;;;;5.72;4.38;;;19.10;99.90;;;;;;5011943;28;20414;-53
2022/05/02 13:59:53;;;;;;;5.75;4.07;;;19.10;99.90;;;;;;5011568;28;20383;-61
2022/05/02 14:02:47;;;;;;;5.40;3.87;;;19.60;99.90;;;;;;5028786;28;20379;-55
2022/05/02 14:05:25;;;;;;;6.70;5.07;;;20.00;99.90;;;;;;5031471;28;20387;-57
2022/05/02 14:07:54;;;;;;;6.38;4.18;;;20.60;99.90;;;;;;5029139;28;20415;-52
2022/05/02 14:10:21;;;;;;;5.68;3.85;;;20.70;99.90;;;;;;5010527;28;20398;-56